createdAt,value
2017-02-12T00:00:53.123Z,0
2017-02-12T00:02:04.529Z,0
2017-02-12T00:03:15.933Z,0
2017-02-12T00:04:27.536Z,0
2017-02-12T00:05:38.934Z,0
2017-02-12T00:06:50.329Z,0
2017-02-12T00:08:01.723Z,0
2017-02-12T00:09:13.123Z,0
2017-02-12T00:10:24.732Z,0
2017-02-12T00:11:36.185Z,0
2017-02-12T00:12:47.586Z,0
2017-02-12T00:13:58.988Z,0
2017-02-12T00:15:10.399Z,0
2017-02-12T00:16:21.802Z,0
2017-02-12T00:17:33.617Z,0
2017-02-12T00:18:45.024Z,0
2017-02-12T00:19:56.634Z,0
2017-02-12T00:21:08.032Z,0
2017-02-12T00:22:19.476Z,0
2017-02-12T00:23:31.075Z,0
2017-02-12T00:24:42.472Z,0
2017-02-12T00:25:53.878Z,0
2017-02-12T00:27:05.279Z,0
2017-02-12T00:28:17.372Z,0
2017-02-12T00:29:29.024Z,0
2017-02-12T00:30:40.419Z,0
2017-02-12T00:31:51.824Z,0
2017-02-12T00:33:03.230Z,0
2017-02-12T00:34:14.675Z,0
2017-02-12T00:35:26.071Z,0
2017-02-12T00:36:37.468Z,0
2017-02-12T00:37:49.078Z,0
2017-02-12T00:39:00.483Z,0
2017-02-12T00:40:12.145Z,0
2017-02-12T00:41:23.549Z,0
2017-02-12T00:42:34.946Z,0
2017-02-12T00:43:46.351Z,0
2017-02-12T00:44:57.747Z,0
2017-02-12T00:46:09.198Z,0
2017-02-12T00:47:20.805Z,0
2017-02-12T00:48:32.210Z,0
2017-02-12T00:49:43.610Z,0
2017-02-12T00:50:55.013Z,0
2017-02-12T00:52:06.468Z,0
2017-02-12T00:53:17.877Z,0
2017-02-12T00:54:29.279Z,0
2017-02-12T00:55:40.889Z,0
2017-02-12T00:56:52.297Z,0
2017-02-12T00:58:03.743Z,0
2017-02-12T00:59:15.153Z,0
2017-02-12T01:00:26.759Z,0
2017-02-12T01:01:38.360Z,0
2017-02-12T01:02:49.765Z,0
2017-02-12T01:04:01.624Z,0
2017-02-12T01:05:13.025Z,0
2017-02-12T01:06:24.627Z,0
2017-02-12T01:07:36.072Z,0
2017-02-12T01:08:47.471Z,0
2017-02-12T01:09:58.929Z,0
2017-02-12T01:11:10.333Z,0
2017-02-12T01:12:21.735Z,0
2017-02-12T01:13:33.135Z,0
2017-02-12T01:14:44.536Z,0
2017-02-12T01:15:55.940Z,0
2017-02-12T01:17:07.348Z,0
2017-02-12T01:18:18.762Z,0
2017-02-12T01:19:30.371Z,0
2017-02-12T01:20:41.826Z,0
2017-02-12T01:21:53.232Z,0
2017-02-12T01:23:04.640Z,0
2017-02-12T01:24:16.239Z,0
2017-02-12T01:25:27.637Z,0
2017-02-12T01:26:39.248Z,0
2017-02-12T01:27:50.859Z,0
2017-02-12T01:29:02.459Z,0
2017-02-12T01:30:13.859Z,0
2017-02-12T01:31:25.313Z,0
2017-02-12T01:32:36.717Z,0
2017-02-12T01:33:48.114Z,0
2017-02-12T01:34:59.713Z,0
2017-02-12T01:36:11.116Z,0
2017-02-12T01:37:22.518Z,0
2017-02-12T01:38:33.953Z,0
2017-02-12T01:39:45.557Z,0
2017-02-12T01:40:56.965Z,0
2017-02-12T01:42:08.366Z,0
2017-02-12T01:43:19.818Z,0
2017-02-12T01:44:31.220Z,0
2017-02-12T01:45:42.623Z,0
2017-02-12T01:46:54.026Z,0
2017-02-12T01:48:05.523Z,0
2017-02-12T01:49:16.918Z,0
2017-02-12T01:50:28.515Z,0
2017-02-12T01:51:39.922Z,0
2017-02-12T01:52:51.332Z,0
2017-02-12T01:54:02.740Z,0
2017-02-12T01:55:14.148Z,0
2017-02-12T01:56:25.555Z,0
2017-02-12T01:57:37.157Z,0
2017-02-12T01:58:48.807Z,0
2017-02-12T02:00:00.199Z,0
2017-02-12T02:01:11.806Z,0
2017-02-12T02:02:23.204Z,0
2017-02-12T02:03:34.602Z,0
2017-02-12T02:04:46.004Z,0
2017-02-12T02:05:57.414Z,0
2017-02-12T02:07:08.817Z,0
2017-02-12T02:08:20.218Z,0
2017-02-12T02:09:31.671Z,0
2017-02-12T02:10:43.082Z,0
2017-02-12T02:11:54.486Z,0
2017-02-12T02:13:05.888Z,0
2017-02-12T02:14:17.293Z,0
2017-02-12T02:15:28.748Z,0
2017-02-12T02:16:40.154Z,0
2017-02-12T02:17:51.565Z,0
2017-02-12T02:19:03.165Z,0
2017-02-12T02:20:14.605Z,0
2017-02-12T02:21:26.014Z,0
2017-02-12T02:22:37.411Z,0
2017-02-12T02:23:48.865Z,0
2017-02-12T02:25:00.462Z,0
2017-02-12T02:26:11.857Z,0
2017-02-12T02:27:23.261Z,0
2017-02-12T02:28:34.664Z,0
2017-02-12T02:29:46.072Z,0
2017-02-12T02:30:57.561Z,0
2017-02-12T02:32:08.968Z,0
2017-02-12T02:33:20.371Z,0
2017-02-12T02:34:31.763Z,0
2017-02-12T02:35:43.357Z,0
2017-02-12T02:36:54.772Z,0
2017-02-12T02:38:06.181Z,0
2017-02-12T02:39:17.792Z,0
2017-02-12T02:40:29.399Z,0
2017-02-12T02:41:40.858Z,0
2017-02-12T02:42:52.454Z,0
2017-02-12T02:44:03.862Z,0
2017-02-12T02:45:15.272Z,0
2017-02-12T02:46:26.879Z,0
2017-02-12T02:47:38.488Z,0
2017-02-12T02:48:49.911Z,0
2017-02-12T02:50:01.317Z,0
2017-02-12T02:51:12.915Z,0
2017-02-12T02:52:24.365Z,0
2017-02-12T02:53:35.766Z,0
2017-02-12T02:54:47.167Z,0
2017-02-12T02:55:58.771Z,0
2017-02-12T02:57:10.381Z,0
2017-02-12T02:58:21.790Z,0
2017-02-12T02:59:33.197Z,0
2017-02-12T03:00:44.598Z,0
2017-02-12T03:01:56.203Z,0
2017-02-12T03:03:07.855Z,0
2017-02-12T03:04:19.263Z,0
2017-02-12T03:05:30.663Z,0
2017-02-12T03:06:42.268Z,0
2017-02-12T03:07:53.680Z,0
2017-02-12T03:09:05.086Z,0
2017-02-12T03:10:16.692Z,0
2017-02-12T03:11:28.090Z,0
2017-02-12T03:12:39.492Z,0
2017-02-12T03:13:50.889Z,0
2017-02-12T03:15:02.346Z,0
2017-02-12T03:16:13.746Z,0
2017-02-12T03:17:25.348Z,0
2017-02-12T03:18:36.746Z,0
2017-02-12T03:19:48.210Z,0
2017-02-12T03:20:59.614Z,0
2017-02-12T03:22:11.222Z,0
2017-02-12T03:23:22.622Z,0
2017-02-12T03:24:34.022Z,0
2017-02-12T03:25:45.424Z,0
2017-02-12T03:26:56.830Z,0
2017-02-12T03:28:08.230Z,0
2017-02-12T03:29:19.636Z,0
2017-02-12T03:30:31.081Z,0
2017-02-12T03:31:42.491Z,0
2017-02-12T03:32:53.890Z,0
2017-02-12T03:34:05.300Z,0
2017-02-12T03:35:16.701Z,0
2017-02-12T03:36:28.094Z,0
2017-02-12T03:37:39.694Z,0
2017-02-12T03:38:51.095Z,0
2017-02-12T03:40:02.496Z,0
2017-02-12T03:41:13.961Z,0
2017-02-12T03:42:25.567Z,0
2017-02-12T03:43:37.364Z,0
2017-02-12T03:44:48.763Z,0
2017-02-12T03:46:00.167Z,0
2017-02-12T03:47:11.569Z,0
2017-02-12T03:48:22.964Z,0
2017-02-12T03:49:34.559Z,0
2017-02-12T03:50:45.962Z,0
2017-02-12T03:51:57.601Z,0
2017-02-12T03:53:09.043Z,0
2017-02-12T03:54:20.454Z,0
2017-02-12T03:55:31.887Z,0
2017-02-12T03:56:43.305Z,0
2017-02-12T03:57:54.909Z,0
2017-02-12T03:59:06.314Z,0
2017-02-12T04:00:17.720Z,0
2017-02-12T04:01:29.125Z,0
2017-02-12T04:02:40.578Z,0
2017-02-12T04:03:52.184Z,0
2017-02-12T04:05:03.587Z,0
2017-02-12T04:06:14.984Z,0
2017-02-12T04:07:26.379Z,0
2017-02-12T04:08:37.781Z,0
2017-02-12T04:09:49.383Z,0
2017-02-12T04:11:00.786Z,0
2017-02-12T04:12:12.187Z,0
2017-02-12T04:13:23.645Z,0
2017-02-12T04:14:35.045Z,0
2017-02-12T04:15:46.449Z,0
2017-02-12T04:16:58.051Z,0
2017-02-12T04:18:09.452Z,0
2017-02-12T04:19:20.850Z,0
2017-02-12T04:20:32.257Z,0
2017-02-12T04:21:43.654Z,0
2017-02-12T04:22:55.053Z,0
2017-02-12T04:24:06.511Z,0
2017-02-12T04:25:18.106Z,0
2017-02-12T04:26:29.504Z,0
2017-02-12T04:27:41.114Z,0
2017-02-12T04:28:52.517Z,0
2017-02-12T04:30:03.925Z,0
2017-02-12T04:31:15.330Z,0
2017-02-12T04:32:26.725Z,0
2017-02-12T04:33:38.328Z,0
2017-02-12T04:34:49.783Z,0
2017-02-12T04:36:01.177Z,0
2017-02-12T04:37:12.568Z,0
2017-02-12T04:38:24.173Z,0
2017-02-12T04:39:35.576Z,0
2017-02-12T04:40:46.972Z,0
2017-02-12T04:41:58.374Z,0
2017-02-12T04:43:09.783Z,0
2017-02-12T04:44:21.187Z,0
2017-02-12T04:45:32.592Z,0
2017-02-12T04:46:44.055Z,0
2017-02-12T04:47:55.461Z,0
2017-02-12T04:49:07.064Z,0
2017-02-12T04:50:18.459Z,0
2017-02-12T04:51:29.914Z,0
2017-02-12T04:52:41.312Z,0
2017-02-12T04:53:52.719Z,0
2017-02-12T04:55:04.118Z,0
2017-02-12T04:56:15.718Z,0
2017-02-12T04:57:27.125Z,0
2017-02-12T04:58:38.524Z,0
2017-02-12T04:59:49.927Z,0
2017-02-12T05:01:01.323Z,0
2017-02-12T05:02:12.780Z,0
2017-02-12T05:03:24.178Z,0
2017-02-12T05:04:35.576Z,0
2017-02-12T05:05:46.987Z,0
2017-02-12T05:06:58.382Z,0
2017-02-12T05:08:09.786Z,0
2017-02-12T05:09:21.386Z,0
2017-02-12T05:10:32.821Z,0
2017-02-12T05:11:44.221Z,0
2017-02-12T05:12:55.705Z,0
2017-02-12T05:14:07.115Z,0
2017-02-12T05:15:18.511Z,0
2017-02-12T05:16:29.914Z,0
2017-02-12T05:17:41.526Z,0
2017-02-12T05:18:52.926Z,0
2017-02-12T05:20:04.323Z,0
2017-02-12T05:21:15.721Z,0
2017-02-12T05:22:27.123Z,0
2017-02-12T05:23:38.773Z,0
2017-02-12T05:24:50.176Z,0
2017-02-12T05:26:01.565Z,0
2017-02-12T05:27:12.962Z,0
2017-02-12T05:28:24.361Z,0
2017-02-12T05:29:35.759Z,0
2017-02-12T05:30:47.363Z,0
2017-02-12T05:31:59.171Z,0
2017-02-12T05:33:10.574Z,0
2017-02-12T05:34:22.223Z,0
2017-02-12T05:35:33.623Z,0
2017-02-12T05:36:45.040Z,0
2017-02-12T05:37:56.649Z,0
2017-02-12T05:39:08.041Z,0
2017-02-12T05:40:19.445Z,0
2017-02-12T05:41:31.252Z,0
2017-02-12T05:42:42.649Z,0
2017-02-12T05:43:54.054Z,0
2017-02-12T05:45:05.710Z,0
2017-02-12T05:46:17.105Z,0
2017-02-12T05:47:28.501Z,0
2017-02-12T05:48:39.909Z,0
2017-02-12T05:49:51.305Z,0
2017-02-12T05:51:02.709Z,0
2017-02-12T05:52:14.112Z,0
2017-02-12T05:53:25.717Z,0
2017-02-12T05:54:37.126Z,0
2017-02-12T05:55:48.774Z,0
2017-02-12T05:57:00.175Z,0
2017-02-12T05:58:11.578Z,0
2017-02-12T05:59:22.976Z,0
2017-02-12T06:00:34.372Z,0
2017-02-12T06:01:45.773Z,0
2017-02-12T06:02:57.183Z,0
2017-02-12T06:04:08.601Z,0
2017-02-12T06:05:20.209Z,0
2017-02-12T06:06:31.663Z,0
2017-02-12T06:07:43.068Z,0
2017-02-12T06:08:54.472Z,0
2017-02-12T06:10:05.899Z,0
2017-02-12T06:11:17.302Z,0
2017-02-12T06:12:28.718Z,0
2017-02-12T06:13:40.324Z,0
2017-02-12T06:14:51.919Z,0
2017-02-12T06:16:03.324Z,0
2017-02-12T06:17:14.721Z,4
2017-02-12T06:18:26.606Z,0
2017-02-12T06:19:38.012Z,0
2017-02-12T06:20:49.628Z,4
2017-02-12T06:22:01.019Z,4
2017-02-12T06:23:12.427Z,4
2017-02-12T06:24:23.829Z,4
2017-02-12T06:25:35.239Z,4
2017-02-12T06:26:46.844Z,8
2017-02-12T06:27:58.293Z,8
2017-02-12T06:29:09.902Z,12
2017-02-12T06:30:21.303Z,12
2017-02-12T06:31:32.709Z,16
2017-02-12T06:32:44.111Z,20
2017-02-12T06:33:55.517Z,24
2017-02-12T06:35:06.921Z,28
2017-02-12T06:36:18.331Z,32
2017-02-12T06:37:29.731Z,32
2017-02-12T06:38:41.178Z,36
2017-02-12T06:39:52.575Z,52
2017-02-12T06:41:03.971Z,56
2017-02-12T06:42:15.367Z,60
2017-02-12T06:43:26.769Z,68
2017-02-12T06:44:38.176Z,76
2017-02-12T06:45:49.584Z,92
2017-02-12T06:47:00.995Z,108
2017-02-12T06:48:12.397Z,128
2017-02-12T06:49:23.847Z,148
2017-02-12T06:50:35.250Z,172
2017-02-12T06:51:46.653Z,188
2017-02-12T06:52:58.054Z,196
2017-02-12T06:54:09.460Z,204
2017-02-12T06:55:20.859Z,220
2017-02-12T06:56:32.456Z,256
2017-02-12T06:57:43.854Z,284
2017-02-12T06:58:55.254Z,304
2017-02-12T07:00:06.678Z,320
2017-02-12T07:01:18.081Z,332
2017-02-12T07:02:29.697Z,332
2017-02-12T07:03:41.096Z,340
2017-02-12T07:04:52.500Z,392
2017-02-12T07:06:04.159Z,436
2017-02-12T07:07:15.754Z,468
2017-02-12T07:08:27.190Z,536
2017-02-12T07:09:38.593Z,588
2017-02-12T07:10:49.996Z,700
2017-02-12T07:12:01.405Z,768
2017-02-12T07:13:13.006Z,816
2017-02-12T07:14:24.403Z,864
2017-02-12T07:15:36.002Z,1056
2017-02-12T07:16:47.453Z,1136
2017-02-12T07:17:59.054Z,1140
2017-02-12T07:19:10.677Z,1236
2017-02-12T07:20:22.079Z,1284
2017-02-12T07:21:33.484Z,1416
2017-02-12T07:22:44.887Z,1592
2017-02-12T07:23:56.493Z,1612
2017-02-12T07:25:08.098Z,1644
2017-02-12T07:26:19.499Z,1580
2017-02-12T07:27:30.942Z,1464
2017-02-12T07:28:42.345Z,1504
2017-02-12T07:29:53.741Z,1632
2017-02-12T07:31:05.349Z,1800
2017-02-12T07:32:16.958Z,1848
2017-02-12T07:33:28.394Z,2012
2017-02-12T07:34:39.803Z,2300
2017-02-12T07:35:51.416Z,2432
2017-02-12T07:37:02.821Z,2632
2017-02-12T07:38:14.235Z,2648
2017-02-12T07:39:25.634Z,2596
2017-02-12T07:40:37.042Z,2404
2017-02-12T07:41:48.682Z,2020
2017-02-12T07:43:00.095Z,1784
2017-02-12T07:44:11.495Z,1648
2017-02-12T07:45:22.905Z,1732
2017-02-12T07:46:34.726Z,1988
2017-02-12T07:47:46.129Z,2072
2017-02-12T07:48:57.818Z,2012
2017-02-12T07:50:09.442Z,1780
2017-02-12T07:51:21.052Z,1832
2017-02-12T07:52:32.456Z,1944
2017-02-12T07:53:44.267Z,2236
2017-02-12T07:54:55.664Z,2040
2017-02-12T07:56:07.073Z,2048
2017-02-12T07:57:18.704Z,2364
2017-02-12T07:58:30.122Z,2544
2017-02-12T07:59:41.789Z,2632
2017-02-12T08:00:53.394Z,2628
2017-02-12T08:02:04.788Z,3080
2017-02-12T08:03:16.193Z,3200
2017-02-12T08:04:27.801Z,3412
2017-02-12T08:05:39.409Z,3392
2017-02-12T08:06:50.811Z,3864
2017-02-12T08:08:02.225Z,4276
2017-02-12T08:09:13.628Z,4816
2017-02-12T08:10:25.079Z,5364
2017-02-12T08:11:36.681Z,6304
2017-02-12T08:12:48.488Z,6380
2017-02-12T08:14:00.098Z,6180
2017-02-12T08:15:11.530Z,5656
2017-02-12T08:16:23.129Z,6312
2017-02-12T08:17:34.530Z,5648
2017-02-12T08:18:45.933Z,5000
2017-02-12T08:19:57.337Z,5324
2017-02-12T08:21:08.785Z,5364
2017-02-12T08:22:20.188Z,5432
2017-02-12T08:23:31.590Z,5280
2017-02-12T08:24:42.988Z,5152
2017-02-12T08:25:54.384Z,5300
2017-02-12T08:27:05.829Z,5368
2017-02-12T08:28:17.232Z,4704
2017-02-12T08:29:28.842Z,4900
2017-02-12T08:30:40.255Z,5304
2017-02-12T08:31:51.923Z,5500
2017-02-12T08:33:03.327Z,6080
2017-02-12T08:34:14.936Z,6296
2017-02-12T08:35:26.352Z,5820
2017-02-12T08:36:37.753Z,4552
2017-02-12T08:37:49.359Z,4196
2017-02-12T08:39:00.771Z,3632
2017-02-12T08:40:12.173Z,3876
2017-02-12T08:41:23.576Z,4316
2017-02-12T08:42:35.035Z,4536
2017-02-12T08:43:46.450Z,4408
2017-02-12T08:44:58.060Z,4444
2017-02-12T08:46:09.466Z,4984
2017-02-12T08:47:21.074Z,6068
2017-02-12T08:48:32.679Z,7172
2017-02-12T08:49:44.086Z,6360
2017-02-12T08:50:55.493Z,5972
2017-02-12T08:52:07.095Z,5688
2017-02-12T08:53:18.551Z,5784
2017-02-12T08:54:29.955Z,5716
2017-02-12T08:55:41.561Z,5324
2017-02-12T08:56:52.957Z,5016
2017-02-12T08:58:04.352Z,5160
2017-02-12T08:59:15.762Z,4860
2017-02-12T09:00:27.167Z,5296
2017-02-12T09:01:38.575Z,4864
2017-02-12T09:02:50.379Z,5108
2017-02-12T09:04:01.832Z,5692
2017-02-12T09:05:13.433Z,6396
2017-02-12T09:06:25.038Z,5712
2017-02-12T09:07:36.450Z,5560
2017-02-12T09:08:48.053Z,5500
2017-02-12T09:09:59.508Z,4380
2017-02-12T09:11:11.126Z,4128
2017-02-12T09:12:22.734Z,4060
2017-02-12T09:13:34.333Z,3960
2017-02-12T09:14:45.982Z,5052
2017-02-12T09:15:57.386Z,5236
2017-02-12T09:17:08.798Z,5712
2017-02-12T09:18:20.203Z,5860
2017-02-12T09:19:31.610Z,5500
2017-02-12T09:20:43.020Z,5212
2017-02-12T09:21:54.425Z,5188
2017-02-12T09:23:05.867Z,5236
2017-02-12T09:24:17.268Z,4704
2017-02-12T09:25:28.726Z,4912
2017-02-12T09:26:40.133Z,5132
2017-02-12T09:27:51.539Z,5352
2017-02-12T09:29:02.945Z,5380
2017-02-12T09:30:14.347Z,5832
2017-02-12T09:31:25.956Z,6476
2017-02-12T09:32:37.361Z,7084
2017-02-12T09:33:48.771Z,7876
2017-02-12T09:35:00.176Z,7992
2017-02-12T09:36:11.829Z,11088
2017-02-12T09:37:23.270Z,9780
2017-02-12T09:38:34.682Z,7972
2017-02-12T09:39:46.292Z,6764
2017-02-12T09:40:57.704Z,5704
2017-02-12T09:42:09.104Z,6560
2017-02-12T09:43:20.510Z,7524
2017-02-12T09:44:32.114Z,7176
2017-02-12T09:45:43.517Z,6924
2017-02-12T09:46:54.970Z,8508
2017-02-12T09:48:06.372Z,9440
2017-02-12T09:49:17.973Z,11216
2017-02-12T09:50:29.386Z,11952
2017-02-12T09:51:40.994Z,10992
2017-02-12T09:52:52.403Z,10736
2017-02-12T09:54:03.811Z,11028
2017-02-12T09:55:15.420Z,12020
2017-02-12T09:56:27.032Z,12636
2017-02-12T09:57:38.487Z,14784
2017-02-12T09:58:49.891Z,14696
2017-02-12T10:00:01.294Z,15304
2017-02-12T10:01:12.699Z,10116
2017-02-12T10:02:24.101Z,13004
2017-02-12T10:03:35.509Z,13180
2017-02-12T10:04:46.917Z,11064
2017-02-12T10:05:58.322Z,8028
2017-02-12T10:07:09.730Z,9800
2017-02-12T10:08:21.392Z,23968
2017-02-12T10:09:32.995Z,12780
2017-02-12T10:10:44.402Z,17248
2017-02-12T10:11:55.823Z,11836
2017-02-12T10:13:07.231Z,11576
2017-02-12T10:14:18.634Z,8708
2017-02-12T10:15:30.034Z,10592
2017-02-12T10:16:41.467Z,11984
2017-02-12T10:17:52.878Z,11036
2017-02-12T10:19:04.332Z,9876
2017-02-12T10:20:15.942Z,18560
2017-02-12T10:21:27.349Z,12168
2017-02-12T10:22:38.765Z,14608
2017-02-12T10:23:50.380Z,12228
2017-02-12T10:25:01.837Z,13640
2017-02-12T10:26:13.242Z,14808
2017-02-12T10:27:24.654Z,14652
2017-02-12T10:28:36.067Z,16000
2017-02-12T10:29:47.530Z,15168
2017-02-12T10:30:58.935Z,14512
2017-02-12T10:32:10.379Z,16256
2017-02-12T10:33:21.792Z,19296
2017-02-12T10:34:33.396Z,18272
2017-02-12T10:35:44.806Z,27296
2017-02-12T10:36:56.216Z,26272
2017-02-12T10:38:07.619Z,36256
2017-02-12T10:39:19.037Z,40416
2017-02-12T10:40:30.449Z,25792
2017-02-12T10:41:41.906Z,35616
2017-02-12T10:42:53.319Z,36256
2017-02-12T10:44:04.725Z,26944
2017-02-12T10:45:16.138Z,28928
2017-02-12T10:46:27.547Z,19968
2017-02-12T10:47:39.162Z,33920
2017-02-12T10:48:50.566Z,35200
2017-02-12T10:50:02.381Z,36224
2017-02-12T10:51:13.840Z,37888
2017-02-12T10:52:25.254Z,36800
2017-02-12T10:53:36.669Z,33760
2017-02-12T10:54:48.088Z,35680
2017-02-12T10:55:59.502Z,37792
2017-02-12T10:57:10.914Z,41920
2017-02-12T10:58:22.315Z,35744
2017-02-12T10:59:33.930Z,29152
2017-02-12T11:00:45.537Z,41344
2017-02-12T11:01:57.204Z,42560
2017-02-12T11:03:08.815Z,40608
2017-02-12T11:04:20.228Z,38176
2017-02-12T11:05:31.640Z,35680
2017-02-12T11:06:43.256Z,22752
2017-02-12T11:07:54.667Z,40384
2017-02-12T11:09:06.089Z,19104
2017-02-12T11:10:17.518Z,32416
2017-02-12T11:11:28.934Z,33952
2017-02-12T11:12:40.406Z,44800
2017-02-12T11:13:52.015Z,44672
2017-02-12T11:15:03.427Z,42496
2017-02-12T11:16:14.839Z,32960
2017-02-12T11:17:26.245Z,30944
2017-02-12T11:18:37.656Z,37632
2017-02-12T11:19:49.072Z,32576
2017-02-12T11:21:00.496Z,32064
2017-02-12T11:22:11.902Z,30592
2017-02-12T11:23:23.307Z,33952
2017-02-12T11:24:34.967Z,33024
2017-02-12T11:25:46.391Z,19168
2017-02-12T11:26:57.804Z,25472
2017-02-12T11:28:09.417Z,29248
2017-02-12T11:29:20.849Z,27136
2017-02-12T11:30:32.262Z,29632
2017-02-12T11:31:43.674Z,27296
2017-02-12T11:32:55.087Z,27648
2017-02-12T11:34:06.550Z,33376
2017-02-12T11:35:17.964Z,32928
2017-02-12T11:36:29.573Z,39616
2017-02-12T11:37:40.986Z,38304
2017-02-12T11:38:52.391Z,30336
2017-02-12T11:40:04.005Z,34272
2017-02-12T11:41:15.418Z,28992
2017-02-12T11:42:26.832Z,30912
2017-02-12T11:43:38.249Z,32128
2017-02-12T11:44:49.705Z,32704
2017-02-12T11:46:01.320Z,34048
2017-02-12T11:47:12.940Z,29088
2017-02-12T11:48:24.388Z,30464
2017-02-12T11:49:35.806Z,32320
2017-02-12T11:50:47.469Z,32032
2017-02-12T11:51:58.883Z,30752
2017-02-12T11:53:10.300Z,27040
2017-02-12T11:54:22.111Z,26752
2017-02-12T11:55:33.605Z,30976
2017-02-12T11:56:45.030Z,29408
2017-02-12T11:57:56.446Z,27712
2017-02-12T11:59:07.857Z,24416
2017-02-12T12:00:19.468Z,22240
2017-02-12T12:01:31.089Z,23616
2017-02-12T12:02:42.503Z,27872
2017-02-12T12:03:53.916Z,25664
2017-02-12T12:05:05.329Z,21824
2017-02-12T12:06:16.787Z,24288
2017-02-12T12:07:28.212Z,24576
2017-02-12T12:08:39.629Z,21600
2017-02-12T12:09:51.031Z,22528
2017-02-12T12:11:02.648Z,21504
2017-02-12T12:12:14.052Z,23040
2017-02-12T12:13:25.456Z,24832
2017-02-12T12:14:36.872Z,23968
2017-02-12T12:15:48.483Z,23840
2017-02-12T12:16:59.938Z,22368
2017-02-12T12:18:11.365Z,19936
2017-02-12T12:19:22.975Z,17984
2017-02-12T12:20:34.385Z,16608
2017-02-12T12:21:45.826Z,14868
2017-02-12T12:22:57.483Z,15528
2017-02-12T12:24:08.897Z,17824
2017-02-12T12:25:20.311Z,20032
2017-02-12T12:26:31.964Z,17152
2017-02-12T12:27:43.423Z,17856
2017-02-12T12:28:54.832Z,20000
2017-02-12T12:30:06.279Z,19392
2017-02-12T12:31:17.885Z,16800
2017-02-12T12:32:29.292Z,16832
2017-02-12T12:33:40.705Z,17568
2017-02-12T12:34:52.104Z,14184
2017-02-12T12:36:03.719Z,13360
2017-02-12T12:37:15.135Z,13208
2017-02-12T12:38:26.802Z,18272
2017-02-12T12:39:38.214Z,18368
2017-02-12T12:40:49.665Z,17440
2017-02-12T12:42:01.278Z,17280
2017-02-12T12:43:12.698Z,15680
2017-02-12T12:44:24.115Z,13008
2017-02-12T12:45:35.535Z,12280
2017-02-12T12:46:46.940Z,15072
2017-02-12T12:47:58.353Z,17664
2017-02-12T12:49:09.811Z,16480
2017-02-12T12:50:21.226Z,16352
2017-02-12T12:51:32.638Z,17440
2017-02-12T12:52:44.055Z,17344
2017-02-12T12:53:55.459Z,16896
2017-02-12T12:55:06.867Z,17376
2017-02-12T12:56:18.276Z,17536
2017-02-12T12:57:29.875Z,14476
2017-02-12T12:58:41.482Z,15904
2017-02-12T12:59:52.942Z,14044
2017-02-12T13:01:04.355Z,14432
2017-02-12T13:02:15.966Z,13884
2017-02-12T13:03:27.367Z,12928
2017-02-12T13:04:38.778Z,11396
2017-02-12T13:05:50.200Z,10648
2017-02-12T13:07:01.622Z,10428
2017-02-12T13:08:13.232Z,10948
2017-02-12T13:09:24.835Z,11744
2017-02-12T13:10:36.292Z,11772
2017-02-12T13:11:47.713Z,12692
2017-02-12T13:12:59.127Z,12756
2017-02-12T13:14:10.542Z,12724
2017-02-12T13:15:21.947Z,12224
2017-02-12T13:16:33.358Z,11468
2017-02-12T13:17:44.779Z,10312
2017-02-12T13:18:56.196Z,9944
2017-02-12T13:20:07.600Z,9588
2017-02-12T13:21:19.059Z,9892
2017-02-12T13:22:30.467Z,9440
2017-02-12T13:23:41.878Z,9512
2017-02-12T13:24:53.489Z,9328
2017-02-12T13:26:04.895Z,9080
2017-02-12T13:27:16.503Z,9004
2017-02-12T13:28:27.928Z,8860
2017-02-12T13:29:39.336Z,8644
2017-02-12T13:30:50.748Z,8560
2017-02-12T13:32:02.170Z,8480
2017-02-12T13:33:13.641Z,8344
2017-02-12T13:34:25.050Z,8180
2017-02-12T13:35:36.455Z,8104
2017-02-12T13:36:48.058Z,7964
2017-02-12T13:37:59.465Z,7908
2017-02-12T13:39:10.869Z,7684
2017-02-12T13:40:22.287Z,7244
2017-02-12T13:41:33.694Z,7044
2017-02-12T13:42:45.154Z,6832
2017-02-12T13:43:56.574Z,6712
2017-02-12T13:45:07.973Z,7360
2017-02-12T13:46:19.384Z,7836
2017-02-12T13:47:30.787Z,7740
2017-02-12T13:48:42.188Z,7656
2017-02-12T13:49:53.591Z,7588
2017-02-12T13:51:05.010Z,7512
2017-02-12T13:52:16.625Z,7492
2017-02-12T13:53:28.080Z,7300
2017-02-12T13:54:39.495Z,7364
2017-02-12T13:55:50.898Z,7388
2017-02-12T13:57:02.313Z,7412
2017-02-12T13:58:13.722Z,7272
2017-02-12T13:59:25.125Z,7056
2017-02-12T14:00:36.531Z,6788
2017-02-12T14:01:48.340Z,6524
2017-02-12T14:02:59.954Z,6264
2017-02-12T14:04:11.418Z,6112
2017-02-12T14:05:22.833Z,6000
2017-02-12T14:06:34.238Z,5956
2017-02-12T14:07:45.851Z,5904
2017-02-12T14:08:57.258Z,5844
2017-02-12T14:10:08.725Z,5796
2017-02-12T14:11:20.137Z,5672
2017-02-12T14:12:31.949Z,5552
2017-02-12T14:13:43.349Z,5452
2017-02-12T14:14:54.752Z,5472
2017-02-12T14:16:06.566Z,5396
2017-02-12T14:17:17.978Z,5336
2017-02-12T14:18:29.386Z,5332
2017-02-12T14:19:40.994Z,5388
2017-02-12T14:20:52.449Z,5368
2017-02-12T14:22:03.849Z,5292
2017-02-12T14:23:15.267Z,5256
2017-02-12T14:24:26.680Z,5232
2017-02-12T14:25:38.280Z,5188
2017-02-12T14:26:49.685Z,5152
2017-02-12T14:28:01.080Z,5120
2017-02-12T14:29:12.511Z,5008
2017-02-12T14:30:23.917Z,4952
2017-02-12T14:31:35.372Z,4876
2017-02-12T14:32:46.779Z,4836
2017-02-12T14:33:58.196Z,4788
2017-02-12T14:35:09.611Z,4756
2017-02-12T14:36:21.221Z,4752
2017-02-12T14:37:32.625Z,4616
2017-02-12T14:38:44.034Z,4556
2017-02-12T14:39:55.454Z,4540
2017-02-12T14:41:06.853Z,4452
2017-02-12T14:42:18.313Z,4400
2017-02-12T14:43:29.724Z,4336
2017-02-12T14:44:41.142Z,4304
2017-02-12T14:45:52.761Z,4264
2017-02-12T14:47:04.174Z,4212
2017-02-12T14:48:15.780Z,4148
2017-02-12T14:49:27.185Z,4084
2017-02-12T14:50:38.785Z,4044
2017-02-12T14:51:50.183Z,4016
2017-02-12T14:53:01.641Z,3960
2017-02-12T14:54:13.244Z,3908
2017-02-12T14:55:24.649Z,3860
2017-02-12T14:56:36.061Z,3800
2017-02-12T14:57:47.471Z,3752
2017-02-12T14:58:58.869Z,3692
2017-02-12T15:00:10.677Z,3648
2017-02-12T15:01:22.087Z,3592
2017-02-12T15:02:33.498Z,3540
2017-02-12T15:03:44.956Z,3484
2017-02-12T15:04:56.587Z,3440
2017-02-12T15:06:07.999Z,3400
2017-02-12T15:07:19.408Z,3372
2017-02-12T15:08:30.815Z,3320
2017-02-12T15:09:42.419Z,3268
2017-02-12T15:10:53.830Z,3212
2017-02-12T15:12:05.230Z,3160
2017-02-12T15:13:16.643Z,3116
2017-02-12T15:14:28.098Z,3068
2017-02-12T15:15:39.508Z,3016
2017-02-12T15:16:50.907Z,2984
2017-02-12T15:18:02.515Z,2944
2017-02-12T15:19:13.921Z,2892
2017-02-12T15:20:25.330Z,2848
2017-02-12T15:21:36.737Z,2788
2017-02-12T15:22:48.147Z,2736
2017-02-12T15:23:59.553Z,2692
2017-02-12T15:25:11.004Z,2636
2017-02-12T15:26:22.412Z,2584
2017-02-12T15:27:33.826Z,2540
2017-02-12T15:28:45.244Z,2484
2017-02-12T15:29:56.652Z,2428
2017-02-12T15:31:08.065Z,2384
2017-02-12T15:32:19.674Z,2328
2017-02-12T15:33:31.286Z,2272
2017-02-12T15:34:42.691Z,2220
2017-02-12T15:35:54.148Z,2176
2017-02-12T15:37:05.556Z,2128
2017-02-12T15:38:16.960Z,2084
2017-02-12T15:39:28.368Z,2024
2017-02-12T15:40:39.771Z,1976
2017-02-12T15:41:51.384Z,1920
2017-02-12T15:43:02.791Z,1860
2017-02-12T15:44:14.210Z,1804
2017-02-12T15:45:25.616Z,1764
2017-02-12T15:46:37.016Z,1724
2017-02-12T15:47:48.472Z,1676
2017-02-12T15:48:59.881Z,1628
2017-02-12T15:50:11.487Z,1576
2017-02-12T15:51:22.900Z,1524
2017-02-12T15:52:34.312Z,1480
2017-02-12T15:53:45.716Z,1428
2017-02-12T15:54:57.121Z,1372
2017-02-12T15:56:08.757Z,1308
2017-02-12T15:57:20.221Z,1240
2017-02-12T15:58:31.835Z,1196
2017-02-12T15:59:43.235Z,1152
2017-02-12T16:00:54.843Z,1120
2017-02-12T16:02:06.249Z,1084
2017-02-12T16:03:17.655Z,1052
2017-02-12T16:04:29.061Z,1004
2017-02-12T16:05:40.465Z,960
2017-02-12T16:06:51.868Z,920
2017-02-12T16:08:03.325Z,872
2017-02-12T16:09:15.129Z,832
2017-02-12T16:10:26.532Z,796
2017-02-12T16:11:37.942Z,752
2017-02-12T16:12:49.751Z,716
2017-02-12T16:14:01.163Z,680
2017-02-12T16:15:12.564Z,644
2017-02-12T16:16:24.169Z,608
2017-02-12T16:17:35.573Z,572
2017-02-12T16:18:47.035Z,536
2017-02-12T16:19:58.436Z,508
2017-02-12T16:21:10.044Z,476
2017-02-12T16:22:21.453Z,448
2017-02-12T16:23:32.853Z,420
2017-02-12T16:24:44.316Z,388
2017-02-12T16:25:55.922Z,360